Time;durP1;ratioP1;P1;durP2;ratioP2;P2;SDS_P1;SDS_P2;PMS_P1;PMS_P2;Temp;Humidity;BMP_temperature;BMP_pressure;BME280_temperature;BME280_humidity;BME280_pressure;Samples;Min_cycle;Max_cycle;Signal;HPM_P1;HPM_P2
2021/05/09 00:00:49;;;;;;;6.70;4.57;;;11.40;86.10;;;11.20;81.85;97735.56;5092470;28;20634;-73
2021/05/09 00:03:17;;;;;;;7.00;4.90;;;11.40;86.10;;;11.15;81.91;97746.34;5064764;28;21000;-73
2021/05/09 00:05:45;;;;;;;5.13;4.57;;;11.40;86.10;;;11.13;81.30;97750.06;5082325;28;20637;-73
2021/05/09 00:08:17;;;;;;;6.13;4.73;;;11.30;86.20;;;11.09;82.60;97743.38;5076900;28;20722;-73
2021/05/09 00:10:45;;;;;;;6.10;4.30;;;11.30;86.30;;;11.04;82.04;97750.75;5084515;28;21164;-73
2021/05/09 00:13:26;;;;;;;5.10;4.40;;;11.20;86.40;;;11.00;82.36;97744.91;5085419;28;21194;-73
2021/05/09 00:15:53;;;;;;;4.90;4.20;;;11.20;86.60;;;10.96;81.68;97737.41;5081950;28;20650;-73
2021/05/09 00:18:21;;;;;;;4.70;4.27;;;11.20;86.50;;;10.91;82.72;97729.94;5089508;28;20639;-73
2021/05/09 00:20:49;;;;;;;5.10;4.60;;;11.10;86.50;;;10.88;82.30;97725.00;5084205;28;20638;-73
2021/05/09 00:23:16;;;;;;;6.80;4.83;;;11.10;86.90;;;10.86;82.68;97720.81;5084980;28;21174;-73
2021/05/09 00:25:44;;;;;;;4.80;4.40;;;11.10;87.20;;;10.83;82.58;97721.06;5084612;28;20626;-73
2021/05/09 00:28:12;;;;;;;5.20;4.20;;;11.00;87.40;;;10.78;82.74;97717.13;5079544;28;21058;-73
2021/05/09 00:30:41;;;;;;;7.50;4.23;;;11.00;87.50;;;10.76;82.68;97721.63;5083906;28;20617;-73
2021/05/09 00:33:08;;;;;;;4.90;4.30;;;11.00;87.50;;;10.72;81.55;97721.03;5077966;28;20661;-73
2021/05/09 00:35:36;;;;;;;4.70;4.27;;;10.90;87.40;;;10.69;82.80;97720.41;5078211;28;20648;-73
2021/05/09 00:38:04;;;;;;;5.30;4.33;;;10.90;87.50;;;10.60;82.51;97715.88;5088035;28;20630;-73
2021/05/09 00:40:31;;;;;;;4.70;4.20;;;10.80;87.20;;;10.59;83.14;97711.63;5085158;28;20644;-73
2021/05/09 00:43:14;;;;;;;5.33;4.63;;;10.80;87.50;;;10.55;82.88;97712.78;5082317;28;20731;-73
2021/05/09 00:45:43;;;;;;;4.80;4.30;;;10.80;87.90;;;10.50;83.32;97712.31;5079015;28;20631;-73
2021/05/09 00:48:11;;;;;;;5.50;4.23;;;10.70;88.20;;;10.50;83.87;97699.28;5085477;28;20618;-73
2021/05/09 00:50:39;;;;;;;6.50;4.50;;;10.70;88.60;;;10.49;83.37;97705.41;5086279;28;20631;-73
2021/05/09 00:53:09;;;;;;;5.37;4.87;;;10.70;88.60;;;10.43;83.20;97706.72;5088526;28;20737;-73
2021/05/09 00:55:39;;;;;;;6.53;4.50;;;10.60;88.60;;;10.40;83.41;97704.34;5086291;28;21057;-73
2021/05/09 00:58:07;;;;;;;4.33;3.90;;;10.60;88.60;;;10.36;83.38;97696.84;5089239;28;20626;-73
2021/05/09 01:00:37;;;;;;;5.20;4.70;;;10.60;88.70;;;10.34;83.47;97691.75;5086962;28;20658;-73
2021/05/09 01:03:08;;;;;;;4.50;4.10;;;10.60;89.00;;;10.33;83.49;97697.09;5083168;28;20627;-73
2021/05/09 01:05:36;;;;;;;4.73;3.70;;;10.50;89.00;;;10.30;83.87;97689.50;5082443;28;20727;-73
2021/05/09 01:08:05;;;;;;;4.37;3.97;;;10.50;89.40;;;10.30;83.81;97688.63;5081365;28;20616;-73
2021/05/09 01:10:33;;;;;;;8.23;4.07;;;10.50;89.50;;;10.28;84.23;97688.75;5088381;28;20985;-73
2021/05/09 01:13:01;;;;;;;5.43;3.93;;;10.50;89.70;;;10.27;83.96;97688.88;5085137;28;21209;-73
2021/05/09 01:15:34;;;;;;;6.70;3.97;;;10.50;89.70;;;10.23;84.28;97677.84;5085543;28;20732;-73
2021/05/09 01:18:02;;;;;;;4.47;3.93;;;10.40;89.70;;;10.24;83.55;97673.44;5085717;28;20665;-73
2021/05/09 01:20:36;;;;;;;5.93;4.20;;;10.40;89.70;;;10.22;83.97;97670.13;5087245;28;20624;-73
2021/05/09 01:23:05;;;;;;;4.50;3.90;;;10.40;89.80;;;10.20;83.97;97669.44;5081437;28;20630;-73
2021/05/09 01:25:33;;;;;;;5.30;4.20;;;10.40;90.00;;;10.17;84.39;97667.03;5083197;28;21193;-73
2021/05/09 01:28:03;;;;;;;5.13;4.00;;;10.40;90.10;;;10.17;84.10;97673.09;5089510;28;20641;-73
2021/05/09 01:30:31;;;;;;;4.07;3.67;;;10.40;90.10;;;10.16;84.30;97665.38;5084375;28;20630;-73
2021/05/09 01:32:59;;;;;;;8.10;3.80;;;10.40;90.20;;;10.17;83.82;97660.06;5081817;28;20774;-73
2021/05/09 01:35:27;;;;;;;4.57;3.83;;;10.30;90.10;;;10.18;83.94;97658.25;5083057;28;21002;-74
2021/05/09 01:37:56;;;;;;;3.70;3.40;;;10.40;90.30;;;10.18;84.71;97655.66;5084433;28;20626;-75
2021/05/09 01:40:24;;;;;;;4.70;3.80;;;10.40;90.20;;;10.15;84.55;97659.34;5084423;28;20635;-75
2021/05/09 01:42:52;;;;;;;7.50;3.53;;;10.30;90.30;;;10.15;83.96;97664.56;5090619;28;20662;-76
2021/05/09 01:45:22;;;;;;;4.23;3.50;;;10.30;90.20;;;10.13;84.61;97669.06;5086113;28;20626;-76
2021/05/09 01:47:49;;;;;;;4.40;4.00;;;10.30;90.20;;;10.12;84.36;97672.59;5082732;28;20627;-76
2021/05/09 01:50:19;;;;;;;3.67;3.33;;;10.30;90.30;;;10.12;84.63;97670.00;5086795;28;20625;-76
2021/05/09 01:52:49;;;;;;;5.03;3.40;;;10.30;90.30;;;10.13;84.28;97666.44;5088502;28;20639;-76
2021/05/09 01:55:22;;;;;;;3.90;3.60;;;10.30;90.40;;;10.14;84.46;97664.66;5079972;28;20646;-76
2021/05/09 01:58:09;;;;;;;4.60;3.80;;;10.30;90.40;;;10.13;84.52;97669.06;5081883;28;20626;-75
2021/05/09 02:00:54;;;;;;;4.20;3.53;;;10.30;90.40;;;10.11;84.76;97664.88;5084849;28;20619;-75
2021/05/09 02:03:33;;;;;;;5.27;3.87;;;10.30;90.40;;;10.09;84.61;97659.78;5087166;28;21213;-75
2021/05/09 02:06:04;;;;;;;6.53;3.77;;;10.30;90.50;;;10.07;84.93;97669.50;5089633;28;20631;-75
2021/05/09 02:08:32;;;;;;;6.13;4.40;;;10.30;90.50;;;10.08;84.71;97665.94;5073308;28;21259;-75
2021/05/09 02:11:09;;;;;;;3.83;3.43;;;10.30;90.50;;;10.08;84.32;97660.72;5085077;28;21181;-75
2021/05/09 02:13:37;;;;;;;4.17;3.20;;;10.30;91.00;;;10.07;84.56;97664.28;5083566;28;20634;-75
2021/05/09 02:16:14;;;;;;;4.90;3.57;;;10.30;91.00;;;10.07;84.76;97666.91;5085251;28;21262;-75
2021/05/09 02:18:43;;;;;;;4.30;3.70;;;10.30;90.60;;;10.06;84.65;97662.63;5083850;28;20627;-75
2021/05/09 02:21:10;;;;;;;5.03;4.00;;;10.30;90.60;;;10.07;84.53;97655.63;5082009;28;21418;-75
2021/05/09 02:23:39;;;;;;;4.03;3.63;;;10.30;90.60;;;10.03;84.75;97652.44;5089961;28;21189;-75
2021/05/09 02:26:06;;;;;;;3.93;3.50;;;10.30;90.60;;;10.04;84.73;97654.09;5094373;28;21225;-75
2021/05/09 02:28:37;;;;;;;6.30;3.37;;;10.20;90.60;;;10.01;84.25;97656.06;5103252;27;21262;-75
2021/05/09 02:31:08;;;;;;;4.50;3.50;;;10.20;90.60;;;10.01;84.75;97646.50;5080465;28;20632;-75
2021/05/09 02:33:36;;;;;;;4.27;3.30;;;10.20;90.60;;;9.99;84.92;97650.16;5081983;28;20664;-76
2021/05/09 02:36:05;;;;;;;4.63;4.13;;;10.20;90.60;;;9.97;84.03;97647.66;5082539;28;20666;-76
2021/05/09 02:38:32;;;;;;;4.90;3.67;;;10.20;90.60;;;9.95;84.59;97652.16;5087435;28;21198;-76
2021/05/09 02:41:00;;;;;;;3.90;3.43;;;10.10;90.50;;;9.92;84.65;97647.16;5102121;28;20634;-76
2021/05/09 02:43:28;;;;;;;3.90;3.30;;;10.20;90.50;;;9.91;84.92;97650.69;5085403;28;20619;-76
2021/05/09 02:45:57;;;;;;;3.53;3.23;;;10.10;90.60;;;9.88;84.23;97656.09;5081056;28;20651;-76
2021/05/09 02:48:24;;;;;;;7.30;3.37;;;10.10;90.60;;;9.85;84.69;97655.50;5082912;28;20987;-76
2021/05/09 02:50:52;;;;;;;6.10;4.00;;;10.10;90.70;;;9.84;85.01;97651.22;5084055;28;20737;-76
2021/05/09 02:53:20;;;;;;;4.80;3.57;;;10.10;90.70;;;9.84;84.38;97647.81;5087754;28;20723;-76
2021/05/09 02:55:50;;;;;;;4.53;3.50;;;10.00;90.70;;;9.84;85.47;97648.63;5089865;28;20678;-76
2021/05/09 02:58:18;;;;;;;5.03;3.33;;;10.00;90.80;;;9.82;85.13;97649.66;5085463;28;20663;-76
2021/05/09 03:00:46;;;;;;;5.40;3.50;;;10.00;90.80;;;9.81;85.39;97648.03;5082351;28;20631;-75
2021/05/09 03:03:20;;;;;;;4.57;3.60;;;10.00;90.90;;;9.80;85.43;97644.56;5074079;28;20635;-75
2021/05/09 03:05:49;;;;;;;3.57;3.27;;;10.00;90.90;;;9.78;85.37;97641.25;5084074;28;21239;-75
2021/05/09 03:08:19;;;;;;;3.90;3.10;;;10.00;90.90;;;9.78;85.02;97649.06;5086025;28;20630;-75
2021/05/09 03:10:48;;;;;;;3.40;3.10;;;10.00;91.00;;;9.78;85.59;97646.47;5087367;28;20726;-75
2021/05/09 03:13:17;;;;;;;3.87;3.30;;;10.00;91.00;;;9.78;85.72;97648.25;5084113;28;21135;-75
2021/05/09 03:15:45;;;;;;;4.73;3.53;;;10.00;91.10;;;9.78;85.35;97659.47;5085962;28;20705;-75
2021/05/09 03:18:13;;;;;;;4.33;3.03;;;10.00;91.20;;;9.79;86.00;97649.88;5090381;28;21206;-75
2021/05/09 03:20:42;;;;;;;4.10;3.30;;;10.00;91.20;;;9.80;85.84;97652.38;5083968;28;20632;-75
2021/05/09 03:23:10;;;;;;;5.50;3.30;;;10.00;91.20;;;9.82;85.48;97649.66;5091287;28;20642;-75
2021/05/09 03:25:37;;;;;;;4.23;3.30;;;10.00;91.20;;;9.81;85.86;97642.81;5092609;28;21302;-75
2021/05/09 03:28:05;;;;;;;3.20;2.83;;;10.00;91.30;;;9.83;85.64;97643.53;5069261;28;20631;-75
2021/05/09 03:30:33;;;;;;;4.20;3.30;;;10.00;91.30;;;9.83;85.45;97635.72;5085317;28;20651;-75
2021/05/09 03:33:00;;;;;;;3.70;3.27;;;10.00;91.20;;;9.82;85.21;97637.50;5087417;28;20685;-75
2021/05/09 03:35:28;;;;;;;4.40;3.17;;;10.00;91.20;;;9.80;85.13;97639.38;5102047;28;20673;-75
2021/05/09 03:37:58;;;;;;;4.23;3.63;;;10.00;91.30;;;9.79;85.51;97640.31;5085170;28;20641;-75
2021/05/09 03:40:27;;;;;;;3.67;3.37;;;9.90;91.80;;;9.79;86.06;97642.94;5090295;28;21112;-75
2021/05/09 03:42:54;;;;;;;3.87;3.23;;;10.00;91.20;;;9.78;85.44;97638.66;5077094;28;20627;-75
2021/05/09 03:45:22;;;;;;;3.40;3.07;;;10.00;91.30;;;9.80;85.59;97641.97;5081925;28;20634;-76
2021/05/09 03:47:50;;;;;;;5.10;3.87;;;10.00;91.20;;;9.81;85.53;97642.81;5085028;28;20630;-76
2021/05/09 03:50:17;;;;;;;5.10;3.53;;;10.00;91.20;;;9.82;85.47;97642.72;5093172;28;20634;-76
2021/05/09 03:52:45;;;;;;;3.63;3.33;;;10.00;91.20;;;9.85;85.25;97647.69;5098938;28;20627;-76
2021/05/09 03:55:14;;;;;;;4.10;3.13;;;10.10;91.20;;;9.86;85.03;97642.38;5090098;28;20673;-74
2021/05/09 03:57:42;;;;;;;3.23;2.93;;;10.00;91.10;;;9.90;85.63;97646.41;5084555;28;20636;-73
2021/05/09 04:00:11;;;;;;;3.50;3.20;;;10.10;91.20;;;9.90;85.60;97641.19;5082251;28;20637;-73
2021/05/09 04:02:41;;;;;;;5.23;3.60;;;10.10;91.30;;;9.92;85.54;97635.88;5082980;28;20631;-73
2021/05/09 04:05:11;;;;;;;2.87;2.67;;;10.10;91.30;;;9.91;85.21;97629.84;5087995;28;20628;-73
2021/05/09 04:07:38;;;;;;;3.60;2.97;;;10.10;91.10;;;9.91;84.68;97623.81;5080520;28;20642;-73
2021/05/09 04:10:08;;;;;;;3.63;3.30;;;10.10;91.40;;;9.91;84.78;97621.22;5061877;28;20629;-73
2021/05/09 04:12:36;;;;;;;5.80;3.43;;;10.10;91.00;;;9.90;85.21;97629.94;5069995;28;21830;-73
2021/05/09 04:15:06;;;;;;;4.00;3.20;;;10.10;91.00;;;9.92;85.31;97620.25;5083077;28;21058;-73
2021/05/09 04:17:34;;;;;;;4.30;2.90;;;10.10;91.00;;;9.95;84.84;97631.31;5080581;28;20698;-73
2021/05/09 04:20:02;;;;;;;5.03;3.03;;;10.10;91.00;;;9.97;84.59;97629.44;5082586;28;20636;-73
2021/05/09 04:22:29;;;;;;;4.30;3.03;;;10.10;91.00;;;9.98;84.89;97627.63;5089548;28;20665;-73
2021/05/09 04:24:57;;;;;;;3.40;3.07;;;10.20;91.30;;;10.00;85.13;97624.00;5081673;28;21064;-73
2021/05/09 04:27:25;;;;;;;4.00;3.30;;;10.20;91.30;;;10.03;85.94;97618.56;5083967;28;20634;-73
2021/05/09 04:29:53;;;;;;;3.40;3.10;;;10.20;91.70;;;10.07;85.52;97620.00;5080951;28;21039;-73
2021/05/09 04:32:21;;;;;;;4.10;3.47;;;10.20;91.40;;;10.13;85.94;97618.69;5087412;28;21085;-75
2021/05/09 04:34:50;;;;;;;3.70;3.27;;;10.30;91.50;;;10.17;85.63;97623.56;5089272;28;20670;-76
2021/05/09 04:37:18;;;;;;;3.10;2.80;;;10.30;91.60;;;10.20;85.44;97623.34;5090754;28;20690;-76
2021/05/09 04:39:46;;;;;;;3.67;3.00;;;10.30;91.60;;;10.26;85.71;97620.28;5081719;28;20649;-76
2021/05/09 04:42:13;;;;;;;5.17;2.83;;;10.40;91.70;;;10.30;85.89;97626.94;5090973;28;20627;-76
2021/05/09 04:44:41;;;;;;;3.40;3.10;;;10.40;91.80;;;10.37;85.81;97620.31;5081975;28;21177;-76
2021/05/09 04:47:09;;;;;;;4.43;3.30;;;10.50;91.80;;;10.43;85.33;97625.06;5086979;28;20646;-76
2021/05/09 04:49:37;;;;;;;4.23;3.57;;;10.60;91.60;;;10.51;85.39;97617.50;5082656;28;20654;-76
2021/05/09 04:52:06;;;;;;;3.77;3.30;;;10.60;91.60;;;10.59;84.47;97622.97;5082063;28;20645;-76
2021/05/09 04:54:33;;;;;;;4.33;3.77;;;10.70;91.20;;;10.64;83.75;97618.22;5085439;28;20642;-74
2021/05/09 04:57:01;;;;;;;4.10;3.70;;;10.70;91.00;;;10.70;83.86;97617.75;5087305;28;21028;-73
2021/05/09 04:59:29;;;;;;;4.50;3.47;;;10.80;90.80;;;10.79;84.68;97617.06;5070691;28;20634;-73
2021/05/09 05:01:56;;;;;;;4.40;3.77;;;10.90;91.10;;;10.92;83.99;97616.81;5080601;28;21197;-73
2021/05/09 05:04:25;;;;;;;3.40;2.80;;;10.90;91.10;;;11.04;84.95;97617.66;5083009;28;21201;-73
2021/05/09 05:06:52;;;;;;;3.53;3.23;;;11.10;91.30;;;11.24;83.73;97616.94;5081581;28;20632;-73
2021/05/09 05:09:20;;;;;;;3.57;3.27;;;11.20;91.20;;;11.33;82.29;97614.41;5085314;28;20735;-76
2021/05/09 05:11:48;;;;;;;5.00;3.80;;;11.30;90.30;;;11.39;82.62;97611.34;5089017;28;20710;-75
2021/05/09 05:14:16;;;;;;;6.10;3.80;;;11.40;90.60;;;11.50;82.67;97611.34;5083385;28;21255;-74
2021/05/09 05:16:44;;;;;;;4.23;3.70;;;11.50;90.60;;;11.59;82.60;97613.22;5089668;28;20676;-74
2021/05/09 05:19:12;;;;;;;4.00;3.00;;;11.60;90.60;;;11.66;83.88;97607.38;5085647;28;20700;-74
2021/05/09 05:21:40;;;;;;;3.63;3.33;;;11.70;90.70;;;11.76;84.22;97611.75;5081164;28;20634;-74
2021/05/09 05:24:09;;;;;;;4.53;3.70;;;11.80;90.80;;;11.85;82.41;97610.19;5079142;28;20688;-74
2021/05/09 05:26:37;;;;;;;4.23;3.83;;;11.90;90.60;;;11.96;83.71;97608.34;5083776;28;20624;-74
2021/05/09 05:29:04;;;;;;;3.33;3.03;;;12.00;90.60;;;12.14;82.10;97619.91;5088896;28;20668;-75
2021/05/09 05:31:32;;;;;;;4.03;3.27;;;12.10;90.80;;;12.36;82.74;97625.03;5088893;28;20646;-75
2021/05/09 05:34:04;;;;;;;4.67;3.20;;;12.30;90.80;;;12.63;82.68;97618.34;5087914;28;20756;-74
2021/05/09 05:36:32;;;;;;;3.87;3.47;;;12.50;90.50;;;12.75;81.81;97619.94;5092689;28;20646;-74
2021/05/09 05:39:01;;;;;;;5.60;3.40;;;12.70;90.10;;;12.87;82.17;97624.13;5088863;28;20640;-74
2021/05/09 05:41:29;;;;;;;4.43;3.30;;;12.80;90.10;;;12.97;81.78;97625.84;5089629;28;20632;-74
2021/05/09 05:43:56;;;;;;;3.70;3.20;;;12.90;88.50;;;13.19;81.38;97633.53;5084341;28;20698;-75
2021/05/09 05:46:27;;;;;;;3.53;3.23;;;13.10;88.90;;;13.38;81.26;97626.56;5100242;28;20629;-74
2021/05/09 05:48:55;;;;;;;3.10;2.90;;;13.30;88.20;;;13.54;81.32;97629.50;5089894;28;20631;-74
2021/05/09 05:51:22;;;;;;;4.00;3.60;;;13.50;89.20;;;13.64;80.95;97627.75;5083115;28;20691;-74
2021/05/09 05:53:55;;;;;;;4.30;3.07;;;13.60;88.40;;;13.77;78.79;97626.53;5088239;28;20701;-74
2021/05/09 05:56:25;;;;;;;4.10;2.97;;;13.70;86.30;;;14.56;77.81;97618.41;5100379;28;21380;-74
2021/05/09 05:58:53;;;;;;;3.30;3.00;;;14.30;86.00;;;15.20;75.98;97626.31;5070430;28;20663;-74
2021/05/09 06:01:21;;;;;;;4.10;3.33;;;14.90;83.00;;;15.56;76.70;97619.19;5088675;28;20638;-74
2021/05/09 06:03:48;;;;;;;6.87;5.03;;;15.30;83.00;;;15.58;74.29;97622.50;5091168;28;21196;-74
2021/05/09 06:06:16;;;;;;;5.53;4.10;;;15.50;79.70;;;15.70;73.20;97621.31;5082900;28;20694;-74
2021/05/09 06:08:45;;;;;;;4.17;3.43;;;15.60;79.30;;;15.98;73.17;97614.22;5087873;28;20668;-75
2021/05/09 06:11:12;;;;;;;3.53;3.20;;;15.80;78.70;;;16.42;71.00;97622.06;5086030;28;20628;-73
2021/05/09 06:13:41;;;;;;;4.50;3.60;;;16.20;77.70;;;16.86;72.68;97620.09;5083052;28;20638;-74
2021/05/09 06:16:08;;;;;;;3.37;3.07;;;16.60;77.80;;;17.30;71.75;97622.53;5087010;28;20833;-72
2021/05/09 06:18:36;;;;;;;3.60;3.30;;;17.00;77.10;;;17.68;70.11;97622.88;5088466;28;20670;-74
2021/05/09 06:21:05;;;;;;;3.87;3.50;;;17.40;75.60;;;18.04;68.71;97617.22;5083972;28;20642;-74
2021/05/09 06:23:33;;;;;;;4.37;3.20;;;17.80;73.80;;;18.40;69.27;97626.50;5085880;28;20627;-74
2021/05/09 06:26:01;;;;;;;3.60;3.30;;;18.10;73.60;;;18.70;67.31;97623.22;5096775;28;21056;-72
2021/05/09 06:28:28;;;;;;;4.37;3.00;;;18.40;71.30;;;19.02;67.17;97632.81;5084037;28;20963;-73
2021/05/09 06:30:57;;;;;;;3.73;3.33;;;18.80;72.30;;;19.22;66.41;97627.97;5089312;28;20668;-73
2021/05/09 06:33:24;;;;;;;4.80;3.83;;;18.90;69.30;;;19.40;64.24;97624.13;5080736;28;20646;-73
2021/05/09 06:35:53;;;;;;;4.60;3.73;;;19.20;68.20;;;19.56;65.02;97626.69;5089004;28;20765;-73
2021/05/09 06:38:21;;;;;;;3.63;3.00;;;19.40;67.30;;;19.87;68.10;97629.25;5089345;28;20640;-73
2021/05/09 06:40:49;;;;;;;3.00;2.77;;;19.60;70.00;;;20.22;64.91;97625.22;5091332;28;20960;-73
2021/05/09 06:43:17;;;;;;;3.20;2.90;;;19.90;67.50;;;20.56;66.27;97622.00;5085466;28;20633;-73
2021/05/09 06:45:46;;;;;;;3.33;2.90;;;20.20;68.70;;;20.88;62.94;97621.75;5086030;28;20649;-73
2021/05/09 06:48:15;;;;;;;3.63;3.33;;;20.50;65.50;;;21.04;63.45;97632.22;5076325;28;20627;-73
2021/05/09 06:50:43;;;;;;;3.00;2.70;;;20.70;65.30;;;21.29;62.55;97629.16;5083697;28;20620;-73
2021/05/09 06:53:10;;;;;;;3.50;2.67;;;21.00;64.60;;;21.45;60.86;97629.81;5082942;28;20659;-73
2021/05/09 06:55:38;;;;;;;3.53;3.10;;;21.10;62.80;;;21.21;62.72;97623.09;5083979;28;21005;-73
2021/05/09 06:58:09;;;;;;;3.70;2.97;;;21.00;62.90;;;21.48;61.88;97625.97;5080068;28;20724;-73
2021/05/09 07:00:37;;;;;;;11.10;7.60;;;21.20;63.70;;;21.51;61.88;97623.78;5081060;28;20643;-74
2021/05/09 07:03:04;;;;;;;9.10;7.60;;;21.30;62.70;;;21.66;60.96;97627.25;5070452;28;20635;-74
2021/05/09 07:05:35;;;;;;;4.47;3.27;;;21.40;61.20;;;22.09;62.36;97619.22;5082369;28;20624;-74
2021/05/09 07:08:04;;;;;;;3.20;2.70;;;21.70;64.00;;;22.39;61.28;97620.81;5087693;28;20990;-74
2021/05/09 07:10:35;;;;;;;3.47;3.17;;;22.00;62.00;;;22.56;59.96;97620.38;5086696;28;21036;-74
2021/05/09 07:13:03;;;;;;;2.87;2.60;;;22.20;60.00;;;22.75;60.09;97617.88;5084012;28;20622;-74
2021/05/09 07:15:34;;;;;;;3.50;2.57;;;22.40;59.70;;;23.06;60.83;97625.53;5089778;28;20634;-74
2021/05/09 07:18:06;;;;;;;3.20;2.90;;;22.70;62.10;;;23.21;59.72;97619.94;5097660;28;21029;-74
2021/05/09 07:20:38;;;;;;;3.80;2.60;;;22.80;58.90;;;23.44;59.74;97609.84;5081008;28;21205;-74
2021/05/09 07:23:07;;;;;;;2.67;2.37;;;23.10;59.50;;;23.65;57.94;97619.63;5081040;28;20686;-74
2021/05/09 07:25:35;;;;;;;2.90;2.63;;;23.30;58.40;;;23.83;60.28;97613.56;5094473;28;21030;-74
2021/05/09 07:28:06;;;;;;;4.00;2.80;;;23.50;59.00;;;24.09;59.78;97610.19;5085069;28;20632;-74
2021/05/09 07:30:35;;;;;;;3.00;2.30;;;23.70;59.40;;;24.14;57.39;97603.22;5089335;28;20627;-74
2021/05/09 07:33:02;;;;;;;5.23;2.37;;;23.80;56.70;;;24.38;58.49;97613.38;5082479;28;20669;-74
2021/05/09 07:35:30;;;;;;;3.03;2.27;;;24.00;58.00;;;24.68;54.69;97613.63;5081626;28;20671;-73
2021/05/09 07:38:02;;;;;;;2.60;2.10;;;24.30;56.30;;;24.79;55.49;97605.03;5094188;28;20701;-75
2021/05/09 07:40:30;;;;;;;2.53;2.00;;;24.50;55.40;;;24.97;55.47;97613.22;5082714;28;20641;-75
2021/05/09 07:43:11;;;;;;;4.43;3.03;;;24.60;55.00;;;25.17;54.40;97608.75;5079761;28;21382;-75
2021/05/09 07:45:39;;;;;;;4.60;2.33;;;24.80;54.00;;;25.39;55.24;97602.13;5077532;28;20632;-74
2021/05/09 07:48:09;;;;;;;2.83;2.10;;;25.00;55.30;;;25.47;54.23;97604.59;5083169;28;20630;-74
2021/05/09 07:50:37;;;;;;;3.00;2.50;;;25.10;53.10;;;25.58;54.08;97603.97;5081966;28;20661;-75
2021/05/09 07:53:06;;;;;;;2.63;2.07;;;25.20;52.20;;;25.68;53.43;97602.53;5079642;28;21258;-73
2021/05/09 07:55:34;;;;;;;2.93;2.53;;;25.40;51.80;;;25.97;51.33;97596.66;5080255;28;20977;-75
2021/05/09 07:58:14;;;;;;;3.60;2.00;;;25.60;50.80;;;26.16;51.92;97597.38;5080581;28;20650;-75
2021/05/09 08:00:42;;;;;;;2.33;2.07;;;25.80;50.80;;;26.36;55.31;97591.97;5081094;28;20635;-75
2021/05/09 08:03:10;;;;;;;2.53;2.33;;;26.00;52.90;;;26.69;55.61;97582.69;5082411;28;20664;-75
2021/05/09 08:05:38;;;;;;;2.80;2.00;;;26.30;53.30;;;26.88;52.82;97587.91;5079673;28;20742;-75
2021/05/09 08:08:07;;;;;;;2.60;1.97;;;26.50;51.00;;;27.07;55.41;97587.75;5080347;28;20196;-75
2021/05/09 08:10:36;;;;;;;2.93;2.27;;;26.70;53.50;;;27.23;51.57;97587.19;5082600;28;20640;-75
2021/05/09 08:13:06;;;;;;;3.27;2.27;;;26.90;50.00;;;27.27;52.39;97585.72;5081186;28;20627;-76
2021/05/09 08:15:35;;;;;;;2.07;1.80;;;27.00;50.30;;;27.45;55.44;97584.91;5080218;28;20972;-75
2021/05/09 08:18:03;;;;;;;2.00;1.70;;;27.10;53.20;;;27.74;54.53;97585.88;5061467;28;20756;-75
2021/05/09 08:20:31;;;;;;;3.67;1.73;;;27.40;53.00;;;27.87;51.10;97579.53;5076789;28;20658;-75
2021/05/09 08:22:59;;;;;;;2.13;1.60;;;27.50;49.40;;;27.98;49.58;97565.34;5077371;28;20634;-75
2021/05/09 08:25:28;;;;;;;1.90;1.67;;;27.70;47.20;;;28.16;50.93;97568.84;5081379;28;20650;-74
2021/05/09 08:27:56;;;;;;;5.30;4.80;;;27.90;48.30;;;28.35;48.71;97570.44;5085805;28;20644;-74
2021/05/09 08:30:25;;;;;;;1.93;1.57;;;28.00;46.20;;;28.48;48.72;97563.84;5086613;28;20637;-74
2021/05/09 08:32:59;;;;;;;4.80;1.43;;;28.20;44.50;;;28.63;47.99;97566.13;5085111;28;20641;-74
2021/05/09 08:35:28;;;;;;;2.13;1.60;;;28.40;43.80;;;28.67;46.10;97560.09;5087555;28;20672;-73
2021/05/09 08:37:56;;;;;;;2.30;1.40;;;28.40;42.80;;;28.76;45.60;97561.38;5082770;28;20763;-73
2021/05/09 08:40:24;;;;;;;1.90;1.30;;;28.50;42.10;;;28.86;46.29;97560.81;5078021;28;20658;-73
2021/05/09 08:42:53;;;;;;;1.90;1.30;;;28.60;42.10;;;28.95;44.85;97554.06;5080922;28;20631;-73
2021/05/09 08:45:21;;;;;;;1.47;1.37;;;28.70;40.40;;;28.98;42.79;97549.03;5081532;28;20632;-73
2021/05/09 08:47:50;;;;;;;1.70;1.30;;;28.80;37.90;;;28.93;43.06;97553.44;5081176;28;20642;-74
2021/05/09 08:50:20;;;;;;;3.30;1.50;;;28.70;37.80;;;28.93;45.43;97548.06;5080370;28;20624;-74
2021/05/09 08:52:50;;;;;;;2.10;1.30;;;28.70;39.40;;;29.01;46.56;97553.94;5082270;28;20738;-74
2021/05/09 08:55:22;;;;;;;1.50;1.20;;;28.80;42.30;;;29.00;44.76;97537.00;5095734;28;21235;-73
2021/05/09 08:57:52;;;;;;;2.17;1.40;;;28.80;39.50;;;29.04;44.76;97545.41;5083744;28;20641;-74
2021/05/09 09:00:21;;;;;;;3.30;1.50;;;28.80;39.10;;;28.98;44.53;97534.78;5088428;28;20639;-74
2021/05/09 09:03:01;;;;;;;2.20;1.40;;;28.80;38.50;;;29.07;45.06;97535.00;5083916;28;20732;-74
2021/05/09 09:05:39;;;;;;;3.50;1.30;;;28.90;39.40;;;29.21;47.75;97528.34;5084465;28;20648;-74
2021/05/09 09:08:08;;;;;;;2.40;1.37;;;29.00;42.80;;;29.24;45.97;97533.28;5080815;28;21156;-73
2021/05/09 09:10:41;;;;;;;1.53;1.20;;;29.00;40.60;;;29.37;45.78;97533.03;5097193;28;20654;-74
2021/05/09 09:13:27;;;;;;;2.07;1.30;;;29.10;40.80;;;29.40;43.42;97527.19;5088571;28;20650;-73
2021/05/09 09:15:57;;;;;;;4.00;2.50;;;29.10;38.70;;;29.37;44.88;97527.66;5066872;28;20668;-73
2021/05/09 09:18:37;;;;;;;2.83;1.80;;;29.20;39.90;;;29.36;45.84;97517.16;5099498;28;20655;-73
2021/05/09 09:21:28;;;;;;;1.97;1.50;;;29.20;40.20;;;29.37;44.02;97511.53;5085505;28;21003;-73
2021/05/09 09:23:57;;;;;;;2.93;1.50;;;29.20;38.20;;;29.36;43.78;97509.06;5079437;28;20642;-73
2021/05/09 09:26:39;;;;;;;1.80;1.33;;;29.20;38.30;;;29.21;43.54;97512.22;5082379;28;20628;-73
2021/05/09 09:29:27;;;;;;;1.80;1.40;;;29.10;38.20;;;29.17;43.69;97499.50;5082608;28;20637;-73
2021/05/09 09:31:57;;;;;;;2.27;1.47;;;29.00;38.30;;;29.17;44.34;97500.31;5082842;28;20646;-73
2021/05/09 09:34:39;;;;;;;2.27;1.50;;;29.00;38.40;;;29.05;46.88;97496.00;5090612;28;20662;-73
2021/05/09 09:37:07;;;;;;;2.20;1.70;;;28.90;41.00;;;29.24;44.61;97492.94;5085258;28;20643;-73
2021/05/09 09:39:50;;;;;;;2.23;1.40;;;29.00;40.00;;;29.38;45.84;97488.97;5089352;28;20620;-73
2021/05/09 09:42:36;;;;;;;2.00;1.80;;;29.10;40.30;;;29.44;44.32;97479.13;5093244;28;21175;-73
2021/05/09 09:45:15;;;;;;;2.40;2.20;;;29.20;38.10;;;29.58;48.17;97475.94;5090953;28;20622;-73
2021/05/09 09:47:55;;;;;;;1.63;1.43;;;29.30;42.20;;;29.47;43.94;97474.13;5094312;28;20640;-73
2021/05/09 09:50:46;;;;;;;1.67;1.57;;;29.30;38.60;;;29.46;44.50;97460.91;5103787;28;20710;-73
2021/05/09 09:53:28;;;;;;;2.47;1.70;;;29.30;39.00;;;29.49;44.12;97464.72;5090010;28;20631;-74
2021/05/09 09:56:05;;;;;;;1.70;1.60;;;29.30;38.10;;;29.41;43.26;97456.25;5090821;28;21061;-74
2021/05/09 09:58:51;;;;;;;3.97;1.60;;;29.30;37.40;;;29.51;52.40;97459.13;5073337;28;20653;-74
2021/05/09 10:01:24;;;;;;;2.30;1.80;;;29.30;44.80;;;29.64;47.10;97454.28;5092589;28;21174;-75
2021/05/09 10:03:54;;;;;;;1.80;1.50;;;29.30;41.80;;;29.71;46.56;97446.91;5090789;28;20669;-75
2021/05/09 10:06:23;;;;;;;1.80;1.50;;;29.40;41.30;;;29.78;46.57;97427.91;5091478;28;20707;-75
2021/05/09 10:08:52;;;;;;;2.70;2.50;;;29.40;40.70;;;29.75;44.42;97437.28;5091913;28;20621;-74
2021/05/09 10:11:21;;;;;;;3.00;1.70;;;29.40;38.90;;;29.86;43.71;97427.56;5093043;28;20629;-74
2021/05/09 10:13:50;;;;;;;1.87;1.67;;;29.50;38.00;;;29.87;43.49;97424.63;5083545;28;20635;-74
2021/05/09 10:16:23;;;;;;;1.73;1.50;;;29.60;37.80;;;29.95;45.57;97419.69;5092829;28;20630;-72
2021/05/09 10:18:57;;;;;;;1.53;1.27;;;29.60;39.30;;;29.96;43.39;97418.63;5088776;28;21104;-73
2021/05/09 10:21:27;;;;;;;2.43;1.70;;;29.70;37.60;;;29.95;43.20;97419.69;5094777;28;20621;-72
2021/05/09 10:24:16;;;;;;;1.67;1.57;;;29.70;37.30;;;29.94;44.28;97411.03;5091419;28;20682;-75
2021/05/09 10:26:53;;;;;;;4.40;1.60;;;29.60;38.10;;;29.96;45.89;97415.94;5087451;28;20632;-74
2021/05/09 10:29:57;;;;;;;2.13;1.63;;;29.70;40.00;;;30.02;46.72;97408.75;5096163;28;21189;-74
2021/05/09 10:32:52;;;;;;;2.93;1.40;;;29.70;39.40;;;29.77;43.25;97399.38;5088251;28;20638;-72